Time;durP1;ratioP1;P1;durP2;ratioP2;P2;SDS_P1;SDS_P2;PMS_P1;PMS_P2;Temp;Humidity;BMP_temperature;BMP_pressure;BME280_temperature;BME280_humidity;BME280_pressure;Samples;Min_cycle;Max_cycle;Signal;HPM_P1;HPM_P2
2023/06/13 00:00:10;;;;;;;8.98;4.70;;;;;;;;;;5005702;28;20434;-76
2023/06/13 00:02:37;;;;;;;9.70;5.05;;;;;;;;;;5012136;28;20495;-75
2023/06/13 00:05:07;;;;;;;10.00;4.70;;;19.20;90.10;;;;;;5001823;28;20978;-77
2023/06/13 00:07:37;;;;;;;7.88;4.72;;;19.10;90.10;;;;;;4975057;28;20760;-77
2023/06/13 00:10:06;;;;;;;11.55;5.07;;;19.00;90.10;;;;;;4978554;28;20449;-77
2023/06/13 00:12:34;;;;;;;9.70;5.03;;;19.00;90.20;;;;;;4981051;28;20422;-77
2023/06/13 00:15:01;;;;;;;7.30;4.45;;;;;;;;;;4992563;28;20426;-77
2023/06/13 00:17:28;;;;;;;8.48;4.90;;;;;;;;;;4976087;28;20454;-77
2023/06/13 00:19:55;;;;;;;10.55;5.10;;;;;;;;;;4980122;28;20430;-77
2023/06/13 00:22:21;;;;;;;8.93;4.90;;;18.70;90.60;;;;;;5006280;28;20431;-77
2023/06/13 00:24:47;;;;;;;9.20;4.45;;;18.80;90.60;;;;;;4993977;28;20490;-77
2023/06/13 00:27:13;;;;;;;9.43;4.80;;;;;;;;;;5012335;28;20454;-77
2023/06/13 00:29:39;;;;;;;13.48;4.97;;;;;;;;;;4992236;28;20458;-77
2023/06/13 00:32:05;;;;;;;9.00;4.63;;;;;;;;;;4977619;28;20441;-76
2023/06/13 00:34:31;;;;;;;7.53;4.65;;;;;;;;;;4976018;28;20430;-77
2023/06/13 00:36:59;;;;;;;9.40;4.68;;;18.30;90.80;;;;;;5003670;28;20431;-78
2023/06/13 00:39:25;;;;;;;9.63;4.80;;;;;;;;;;4971516;28;20430;-77
2023/06/13 00:41:50;;;;;;;7.72;4.55;;;18.40;91.00;;;;;;4998098;28;20430;-77
2023/06/13 00:44:16;;;;;;;7.77;4.50;;;;;;;;;;4992894;28;20839;-77
2023/06/13 00:46:44;;;;;;;7.30;4.40;;;18.30;91.00;;;;;;4992928;28;20495;-77
2023/06/13 00:49:11;;;;;;;7.63;4.55;;;;;;;;;;4987700;28;20426;-78
2023/06/13 00:51:40;;;;;;;7.50;4.60;;;18.30;91.10;;;;;;4995219;28;20411;-77
2023/06/13 00:54:10;;;;;;;8.93;4.33;;;18.20;91.10;;;;;;4986093;28;20509;-77
2023/06/13 00:56:36;;;;;;;8.15;4.47;;;18.30;91.20;;;;;;4995100;28;20422;-77
2023/06/13 00:59:03;;;;;;;6.90;4.30;;;18.30;91.20;;;;;;4980713;28;20422;-78
2023/06/13 01:01:30;;;;;;;7.75;4.25;;;;;;;;;;4992565;28;20436;-76
2023/06/13 01:03:59;;;;;;;8.30;4.53;;;18.20;91.30;;;;;;4990816;28;20557;-78
2023/06/13 01:06:28;;;;;;;7.28;4.25;;;18.40;91.40;;;;;;4979716;28;20430;-77
2023/06/13 01:08:58;;;;;;;6.22;3.95;;;;;;;;;;4999655;28;20457;-77
2023/06/13 01:11:52;;;;;;;7.80;4.10;;;18.20;91.50;;;;;;5011472;28;20478;-77
2023/06/13 01:14:20;;;;;;;7.10;4.40;;;;;;;;;;4988896;28;20457;-76
2023/06/13 01:16:54;;;;;;;6.90;4.30;;;18.10;91.70;;;;;;5002167;28;20913;-77
2023/06/13 01:19:28;;;;;;;7.68;4.35;;;;;;;;;;4995173;28;20425;-77
2023/06/13 01:21:56;;;;;;;10.25;4.38;;;18.20;91.60;;;;;;4982557;28;20472;-77
2023/06/13 01:24:53;;;;;;;7.23;4.27;;;18.00;91.70;;;;;;4977367;28;20426;-77
2023/06/13 01:27:21;;;;;;;11.30;4.72;;;17.90;91.70;;;;;;4989084;28;20504;-77
2023/06/13 01:29:47;;;;;;;9.25;4.30;;;;;;;;;;4990652;28;20428;-77
2023/06/13 01:32:14;;;;;;;8.60;4.28;;;17.90;91.90;;;;;;4992199;28;20438;-78
2023/06/13 01:34:40;;;;;;;7.57;4.20;;;17.90;91.90;;;;;;4967852;28;20528;-77
2023/06/13 01:37:07;;;;;;;6.72;4.40;;;17.80;92.10;;;;;;4992245;28;20925;-78
2023/06/13 01:39:34;;;;;;;8.80;4.32;;;;;;;;;;5005551;28;20426;-77
2023/06/13 01:42:00;;;;;;;9.40;4.40;;;17.60;92.10;;;;;;4979241;28;20429;-77
2023/06/13 01:44:28;;;;;;;7.75;4.80;;;17.70;92.30;;;;;;4992248;28;20610;-77
2023/06/13 01:47:07;;;;;;;11.00;4.50;;;;;;;;;;5002404;28;20492;-77
2023/06/13 01:49:42;;;;;;;8.35;4.80;;;;;;;;;;4974074;28;20434;-76
2023/06/13 01:52:11;;;;;;;7.78;4.82;;;;;;;;;;4990733;28;20430;-77
2023/06/13 01:54:45;;;;;;;8.07;4.68;;;17.40;92.40;;;;;;4994865;28;20914;-77
2023/06/13 01:57:15;;;;;;;8.23;4.63;;;17.30;92.40;;;;;;4990167;28;20426;-77
2023/06/13 01:59:43;;;;;;;10.90;4.63;;;17.10;92.30;;;;;;4992865;28;20430;-77
2023/06/13 02:02:10;;;;;;;9.40;4.68;;;17.50;92.60;;;;;;4992488;28;20460;-78
2023/06/13 02:04:41;;;;;;;10.05;5.00;;;;;;;;;;4994076;28;20961;-78
2023/06/13 02:07:08;;;;;;;7.10;4.50;;;17.20;92.60;;;;;;4994882;28;20513;-78
2023/06/13 02:09:34;;;;;;;6.25;4.75;;;;;;;;;;4979228;28;20957;-77
2023/06/13 02:12:00;;;;;;;11.17;4.93;;;;;;;;;;4995391;28;20493;-75
2023/06/13 02:14:26;;;;;;;9.00;5.22;;;17.10;92.70;;;;;;4973253;28;20454;-77
2023/06/13 02:16:52;;;;;;;7.73;4.80;;;17.40;92.80;;;;;;4999324;28;20481;-77
2023/06/13 02:19:18;;;;;;;9.40;4.85;;;17.10;92.90;;;;;;5000748;28;20489;-77
2023/06/13 02:21:48;;;;;;;9.10;4.80;;;16.90;92.90;;;;;;4996304;28;20506;-77
2023/06/13 02:24:14;;;;;;;7.13;4.45;;;;;;;;;;4996477;28;21971;-77
2023/06/13 02:26:41;;;;;;;7.38;4.45;;;;;;;;;;4991886;28;20492;-76
2023/06/13 02:29:07;;;;;;;10.67;4.80;;;17.10;93.10;;;;;;4965319;28;20509;-77
2023/06/13 02:31:38;;;;;;;7.87;5.00;;;16.80;93.20;;;;;;5009146;28;20487;-77
2023/06/13 02:34:04;;;;;;;9.75;5.15;;;16.80;93.30;;;;;;4994231;28;20434;-77
2023/06/13 02:36:30;;;;;;;9.32;5.05;;;;;;;;;;4992250;28;20505;-77
2023/06/13 02:38:56;;;;;;;9.35;5.30;;;16.90;93.40;;;;;;4994330;28;20798;-76
2023/06/13 02:41:22;;;;;;;9.77;4.85;;;;;;;;;;4994825;28;20434;-77
2023/06/13 02:43:48;;;;;;;8.57;5.00;;;;;;;;;;5001721;28;20837;-77
2023/06/13 02:46:15;;;;;;;10.23;4.80;;;;;;;;;;4992660;28;20441;-77
2023/06/13 02:48:41;;;;;;;7.82;4.85;;;16.50;94.00;;;;;;4994414;28;20464;-77
2023/06/13 02:51:09;;;;;;;9.47;4.80;;;;;;;;;;4992056;28;20474;-77
2023/06/13 02:53:36;;;;;;;7.73;4.90;;;;;;;;;;4992966;28;20775;-78
2023/06/13 02:56:02;;;;;;;7.13;4.53;;;;;;;;;;4989242;28;20426;-77
2023/06/13 02:58:28;;;;;;;7.13;5.20;;;;;;;;;;4992909;28;20458;-77
2023/06/13 03:00:55;;;;;;;10.93;5.10;;;;;;;;;;4992021;28;20763;-77
2023/06/13 03:03:24;;;;;;;7.68;4.82;;;;;;;;;;4979296;28;20769;-76
2023/06/13 03:05:56;;;;;;;8.10;5.20;;;16.20;94.70;;;;;;4993361;28;20500;-76
2023/06/13 03:08:27;;;;;;;7.47;5.10;;;16.60;94.90;;;;;;4994057;28;20988;-77
2023/06/13 03:10:53;;;;;;;7.75;4.40;;;;;;;;;;4994613;28;20473;-77
2023/06/13 03:13:19;;;;;;;10.75;5.00;;;16.20;95.00;;;;;;5006592;28;20765;-77
2023/06/13 03:15:47;;;;;;;9.88;5.30;;;;;;;;;;4994919;28;20558;-77
2023/06/13 03:18:13;;;;;;;9.88;5.18;;;;;;;;;;4994965;28;20433;-77
2023/06/13 03:20:45;;;;;;;11.70;5.50;;;;;;;;;;4975825;28;20491;-77
2023/06/13 03:23:15;;;;;;;13.53;5.57;;;;;;;;;;4977317;28;20782;-76
2023/06/13 03:25:41;;;;;;;9.75;5.55;;;16.20;95.40;;;;;;4977807;28;20432;-77
2023/06/13 03:28:07;;;;;;;9.00;5.70;;;;;;;;;;4988842;28;20514;-77
2023/06/13 03:30:34;;;;;;;9.73;5.18;;;;;;;;;;4979890;28;20477;-77
2023/06/13 03:33:00;;;;;;;8.20;5.40;;;16.00;95.60;;;;;;4991718;28;20433;-76
2023/06/13 03:35:26;;;;;;;7.93;5.30;;;16.20;95.80;;;;;;4976872;28;20410;-76
2023/06/13 03:37:52;;;;;;;7.75;5.20;;;16.10;95.90;;;;;;4977150;28;20760;-75
2023/06/13 03:40:18;;;;;;;11.03;5.30;;;16.10;95.80;;;;;;4967671;28;20937;-77
2023/06/13 03:42:44;;;;;;;13.40;5.50;;;;;;;;;;4973437;28;20508;-76
2023/06/13 03:45:10;;;;;;;10.33;5.47;;;;;;;;;;4993245;28;20979;-76
2023/06/13 03:47:37;;;;;;;10.15;5.50;;;15.80;95.80;;;;;;5006982;28;20429;-77
2023/06/13 03:50:03;;;;;;;8.38;4.97;;;;;;;;;;4995694;28;20426;-77
2023/06/13 03:52:30;;;;;;;10.07;5.50;;;;;;;;;;5004299;28;20432;-77
2023/06/13 03:54:57;;;;;;;10.35;5.47;;;;;;;;;;4995968;28;20408;-77
2023/06/13 03:57:23;;;;;;;7.13;4.95;;;;;;;;;;4978973;28;20426;-77
2023/06/13 03:59:49;;;;;;;7.80;5.07;;;15.70;95.80;;;;;;4993531;28;20489;-77
2023/06/13 04:02:15;;;;;;;7.67;5.10;;;16.00;96.20;;;;;;4982504;28;20425;-76
2023/06/13 04:04:42;;;;;;;9.77;5.30;;;15.80;96.30;;;;;;4981952;28;20430;-77
2023/06/13 04:07:11;;;;;;;9.85;5.18;;;;;;;;;;4975391;28;20523;-76
2023/06/13 04:09:37;;;;;;;11.05;5.20;;;15.80;96.30;;;;;;4975543;28;20422;-78
2023/06/13 04:12:03;;;;;;;9.30;5.13;;;;;;;;;;4993598;28;20789;-78
2023/06/13 04:14:29;;;;;;;12.50;5.40;;;;;;;;;;4992157;28;20438;-77
2023/06/13 04:16:57;;;;;;;9.00;4.95;;;;;;;;;;4975241;28;20525;-78
2023/06/13 04:19:23;;;;;;;12.10;5.07;;;;;;;;;;4979094;28;20421;-77
2023/06/13 04:21:51;;;;;;;10.27;5.40;;;;;;;;;;4993963;28;20425;-77
2023/06/13 04:24:18;;;;;;;10.25;5.25;;;;;;;;;;4990273;28;20470;-77
2023/06/13 04:26:45;;;;;;;12.10;5.60;;;;;;;;;;4994498;28;20422;-77
2023/06/13 04:29:13;;;;;;;11.73;5.07;;;;;;;;;;5003016;28;20447;-77
2023/06/13 04:31:42;;;;;;;9.43;5.53;;;16.00;97.10;;;;;;4990562;28;20429;-78
2023/06/13 04:34:10;;;;;;;9.70;5.30;;;;;;;;;;4993723;28;20422;-77
2023/06/13 04:36:38;;;;;;;9.52;5.78;;;;;;;;;;4991674;28;20426;-77
2023/06/13 04:39:05;;;;;;;9.00;5.05;;;16.20;97.40;;;;;;4989225;28;21007;-77
2023/06/13 04:41:35;;;;;;;8.93;5.07;;;;;;;;;;4991350;28;20514;-76
2023/06/13 04:44:10;;;;;;;10.80;5.40;;;16.00;97.30;;;;;;4990749;28;20437;-77
2023/06/13 04:46:38;;;;;;;10.47;5.43;;;16.30;97.40;;;;;;4993197;28;20425;-77
2023/06/13 04:49:05;;;;;;;10.52;5.43;;;;;;;;;;4992452;28;20497;-77
2023/06/13 04:51:32;;;;;;;10.23;5.18;;;;;;;;;;4978428;28;20433;-77
2023/06/13 04:54:00;;;;;;;9.23;6.00;;;16.10;97.10;;;;;;4983201;28;20432;-77
2023/06/13 04:56:27;;;;;;;8.60;5.38;;;;;;;;;;4976828;28;20447;-77
2023/06/13 04:58:53;;;;;;;11.13;5.32;;;16.00;97.40;;;;;;4986171;28;20839;-77
2023/06/13 05:01:26;;;;;;;9.53;5.40;;;;;;;;;;4975045;28;20575;-77
2023/06/13 05:03:55;;;;;;;9.95;5.53;;;;;;;;;;4994364;28;21360;-77
2023/06/13 05:06:21;;;;;;;8.98;5.22;;;16.40;97.20;;;;;;4990672;28;20414;-76
2023/06/13 05:08:47;;;;;;;9.38;5.72;;;;;;;;;;4978060;28;20921;-80
2023/06/13 05:11:14;;;;;;;9.80;5.40;;;;;;;;;;4978692;28;20948;-78
2023/06/13 05:13:39;;;;;;;7.47;5.28;;;16.40;97.10;;;;;;4978649;28;20454;-80
2023/06/13 05:16:06;;;;;;;13.00;5.38;;;;;;;;;;4989851;28;20515;-80
2023/06/13 05:18:33;;;;;;;8.75;5.40;;;;;;;;;;4993972;28;20426;-80
2023/06/13 05:21:00;;;;;;;9.02;5.75;;;;;;;;;;5005438;28;20430;-81
2023/06/13 05:23:28;;;;;;;8.82;5.20;;;;;;;;;;5001686;28;20955;-77
2023/06/13 05:25:54;;;;;;;9.57;5.15;;;;;;;;;;4990924;28;20453;-78
2023/06/13 05:28:20;;;;;;;8.18;5.38;;;16.90;96.80;;;;;;4996596;28;20477;-77
2023/06/13 05:30:46;;;;;;;9.73;5.38;;;16.80;96.40;;;;;;4987161;28;20957;-77
2023/06/13 05:33:14;;;;;;;9.18;5.40;;;;;;;;;;4988560;28;20429;-75
2023/06/13 05:35:40;;;;;;;9.40;5.37;;;;;;;;;;4973299;28;20473;-77
2023/06/13 05:38:09;;;;;;;7.57;5.00;;;17.40;96.40;;;;;;4993037;28;20434;-78
2023/06/13 05:40:36;;;;;;;6.93;5.13;;;17.10;96.30;;;;;;4991297;28;20434;-78
2023/06/13 05:43:02;;;;;;;9.25;5.40;;;17.20;96.20;;;;;;4988226;28;20948;-78
2023/06/13 05:45:28;;;;;;;12.82;5.38;;;17.20;95.60;;;;;;4974070;28;22027;-77
2023/06/13 05:47:54;;;;;;;7.88;4.90;;;;;;;;;;4988030;28;20462;-78
2023/06/13 05:50:20;;;;;;;9.10;5.10;;;;;;;;;;4975507;28;20427;-78
2023/06/13 05:52:46;;;;;;;8.55;5.30;;;17.60;95.50;;;;;;4988864;28;20453;-77
2023/06/13 05:55:12;;;;;;;8.00;5.15;;;;;;;;;;4981880;28;20420;-77
2023/06/13 05:57:43;;;;;;;8.27;5.55;;;17.70;95.20;;;;;;4992707;28;20773;-77
2023/06/13 06:00:13;;;;;;;8.65;5.10;;;17.70;94.70;;;;;;4974559;28;20857;-76
2023/06/13 06:02:49;;;;;;;9.27;5.13;;;;;;;;;;4985478;28;20442;-78
2023/06/13 06:05:15;;;;;;;10.25;4.88;;;;;;;;;;4986769;28;20430;-79
2023/06/13 06:07:43;;;;;;;9.52;5.03;;;18.00;93.80;;;;;;4975934;28;20450;-78
2023/06/13 06:10:09;;;;;;;9.52;4.60;;;18.20;93.30;;;;;;4976341;28;20889;-79
2023/06/13 06:12:35;;;;;;;9.75;4.85;;;;;;;;;;4971611;28;20948;-78
2023/06/13 06:15:01;;;;;;;8.52;4.32;;;;;;;;;;4998958;28;20521;-78
2023/06/13 06:17:27;;;;;;;7.20;4.32;;;18.20;93.00;;;;;;4977723;28;20425;-78
2023/06/13 06:19:53;;;;;;;7.18;4.20;;;18.60;92.80;;;;;;4996439;28;20443;-79
2023/06/13 06:22:19;;;;;;;6.82;3.83;;;;;;;;;;4990992;28;20490;-77
2023/06/13 06:24:45;;;;;;;6.45;4.10;;;;;;;;;;4999967;28;20457;-79
2023/06/13 06:27:12;;;;;;;8.70;4.07;;;;;;;;;;4996627;28;20525;-80
2023/06/13 06:29:39;;;;;;;7.47;3.97;;;18.90;90.60;;;;;;4997377;28;20509;-79
2023/06/13 06:32:06;;;;;;;6.18;3.80;;;18.80;90.20;;;;;;4990578;28;20437;-79
2023/06/13 06:34:32;;;;;;;7.65;4.18;;;;;;;;;;5008939;28;20461;-80
2023/06/13 06:36:58;;;;;;;6.70;3.80;;;;;;;;;;4995093;28;20426;-80
2023/06/13 06:39:24;;;;;;;6.95;4.00;;;;;;;;;;4998870;28;20513;-80
2023/06/13 06:41:50;;;;;;;5.30;3.37;;;;;;;;;;4996239;28;20432;-81
2023/06/13 06:44:16;;;;;;;6.93;3.60;;;;;;;;;;4999485;28;20509;-80
2023/06/13 06:46:42;;;;;;;7.65;3.72;;;19.90;89.60;;;;;;4984286;28;20791;-79
2023/06/13 06:49:08;;;;;;;8.17;3.47;;;;;;;;;;4998887;28;20416;-80
2023/06/13 06:51:35;;;;;;;7.67;3.80;;;;;;;;;;4999611;28;20413;-81
2023/06/13 06:54:01;;;;;;;7.20;3.58;;;;;;;;;;4983963;28;20791;-77
2023/06/13 06:56:27;;;;;;;6.75;3.47;;;;;;;;;;4991032;28;20412;-80
2023/06/13 06:58:53;;;;;;;9.77;3.40;;;20.50;88.30;;;;;;4995080;28;20449;-80
2023/06/13 07:01:19;;;;;;;8.68;3.65;;;;;;;;;;4992239;28;20437;-80
2023/06/13 07:03:45;;;;;;;5.78;3.67;;;20.50;87.30;;;;;;5003981;28;20422;-80
2023/06/13 07:06:11;;;;;;;10.30;3.58;;;;;;;;;;4997980;28;20534;-79
2023/06/13 07:08:37;;;;;;;11.10;4.10;;;;;;;;;;4979828;28;20428;-79
2023/06/13 07:11:03;;;;;;;6.68;3.67;;;;;;;;;;4993860;28;20434;-78
2023/06/13 07:13:30;;;;;;;6.03;3.38;;;21.30;87.50;;;;;;4963549;28;20426;-81
2023/06/13 07:15:55;;;;;;;9.02;3.40;;;21.10;87.40;;;;;;4998129;28;20925;-82
2023/06/13 07:18:22;;;;;;;4.82;3.10;;;;;;;;;;5014285;28;20437;-81
2023/06/13 07:20:48;;;;;;;7.85;3.50;;;;;;;;;;4993625;28;20441;-82
2023/06/13 07:23:13;;;;;;;7.95;3.58;;;21.10;87.00;;;;;;4997060;28;20922;-82
2023/06/13 07:25:41;;;;;;;5.50;3.38;;;;;;;;;;4977710;28;20436;-81
2023/06/13 07:28:07;;;;;;;6.68;3.40;;;;;;;;;;4992970;28;20467;-77
2023/06/13 07:30:33;;;;;;;7.50;3.33;;;21.50;85.80;;;;;;4964241;28;20420;-77
2023/06/13 07:32:59;;;;;;;7.60;3.30;;;;;;;;;;4982845;28;20500;-78
2023/06/13 07:35:25;;;;;;;5.78;3.10;;;;;;;;;;4993488;28;22252;-78
2023/06/13 07:37:52;;;;;;;8.37;3.17;;;22.00;84.30;;;;;;4985176;28;20937;-78
2023/06/13 07:40:20;;;;;;;5.85;2.80;;;22.20;83.40;;;;;;4974318;28;20426;-78
2023/06/13 07:42:45;;;;;;;9.90;3.45;;;22.30;82.90;;;;;;4984001;28;20478;-76
2023/06/13 07:45:12;;;;;;;9.40;3.33;;;22.10;83.20;;;;;;4984029;28;20430;-79
2023/06/13 07:47:38;;;;;;;7.63;3.13;;;22.20;83.10;;;;;;4975451;28;20517;-78
2023/06/13 07:50:04;;;;;;;7.47;3.27;;;22.30;83.50;;;;;;4990146;28;21012;-79
2023/06/13 07:52:29;;;;;;;6.97;3.00;;;22.40;81.30;;;;;;4991720;28;20430;-79
2023/06/13 07:54:56;;;;;;;6.72;2.95;;;22.30;81.00;;;;;;4990624;28;20481;-77
2023/06/13 07:57:22;;;;;;;5.95;3.05;;;;;;;;;;4991124;28;20426;-77
2023/06/13 07:59:48;;;;;;;7.45;3.28;;;22.70;81.00;;;;;;4993381;28;20479;-78
2023/06/13 08:02:14;;;;;;;5.70;3.20;;;22.80;82.00;;;;;;4992658;28;20438;-78
2023/06/13 08:04:40;;;;;;;9.40;3.40;;;23.20;81.30;;;;;;4993097;28;20438;-79
2023/06/13 08:07:09;;;;;;;6.20;3.10;;;22.90;77.70;;;;;;4987488;28;20576;-77
2023/06/13 08:09:34;;;;;;;9.95;3.28;;;23.00;78.80;;;;;;4995584;28;20451;-78
2023/06/13 08:12:00;;;;;;;13.00;3.80;;;23.10;78.20;;;;;;4972797;28;20929;-79
2023/06/13 08:14:26;;;;;;;8.02;3.17;;;23.20;79.40;;;;;;4976762;28;20430;-78
2023/06/13 08:16:52;;;;;;;7.73;3.07;;;;;;;;;;4992689;28;20489;-79
2023/06/13 08:19:18;;;;;;;8.07;3.60;;;23.40;79.50;;;;;;5003471;28;20956;-80
2023/06/13 08:21:46;;;;;;;8.40;3.42;;;23.40;78.30;;;;;;4971984;28;20426;-79
2023/06/13 08:24:13;;;;;;;10.45;3.58;;;23.50;78.70;;;;;;4973433;28;20466;-78
2023/06/13 08:26:39;;;;;;;9.00;3.20;;;23.50;77.40;;;;;;4990312;28;20426;-77
2023/06/13 08:29:06;;;;;;;7.85;3.20;;;23.70;77.50;;;;;;4968888;28;20500;-77
2023/06/13 08:31:32;;;;;;;8.30;3.10;;;24.10;77.30;;;;;;4997665;28;20431;-78
2023/06/13 08:34:01;;;;;;;8.10;3.10;;;23.60;76.30;;;;;;4982388;28;20438;-78
2023/06/13 08:36:28;;;;;;;7.68;3.38;;;24.10;76.90;;;;;;4973840;28;20477;-79
2023/06/13 08:38:57;;;;;;;7.10;3.00;;;24.20;75.80;;;;;;5002917;28;20428;-79
2023/06/13 08:41:25;;;;;;;6.32;2.90;;;24.30;76.80;;;;;;5005439;28;20457;-79
2023/06/13 08:43:52;;;;;;;12.60;3.30;;;24.50;76.00;;;;;;4988762;28;20839;-79
2023/06/13 08:46:18;;;;;;;7.35;3.33;;;24.60;76.90;;;;;;4990829;28;20433;-80
2023/06/13 08:48:44;;;;;;;6.40;3.40;;;24.60;74.90;;;;;;4976129;28;20547;-79
2023/06/13 08:51:15;;;;;;;7.03;3.50;;;24.40;75.40;;;;;;4975563;28;20425;-80
2023/06/13 08:53:51;;;;;;;6.50;3.07;;;24.50;74.00;;;;;;4993291;28;20432;-79
2023/06/13 08:56:22;;;;;;;7.00;3.40;;;24.20;73.70;;;;;;4989865;28;20940;-80
2023/06/13 08:58:58;;;;;;;5.00;3.30;;;24.40;73.90;;;;;;4996560;28;20968;-78
2023/06/13 09:01:25;;;;;;;6.82;3.40;;;25.00;73.50;;;;;;4989059;28;20945;-79
2023/06/13 09:03:52;;;;;;;5.90;3.33;;;24.60;74.10;;;;;;4968701;28;20848;-79
2023/06/13 09:06:19;;;;;;;9.20;3.60;;;24.70;75.00;;;;;;4976328;28;20398;-79
2023/06/13 09:08:49;;;;;;;5.90;3.60;;;25.00;74.30;;;;;;4976212;28;20414;-78
2023/06/13 09:11:16;;;;;;;7.47;3.30;;;25.20;75.50;;;;;;4975460;28;20461;-78
2023/06/13 09:13:44;;;;;;;7.13;3.50;;;25.40;74.60;;;;;;4992644;28;20434;-79
2023/06/13 09:16:10;;;;;;;9.15;3.35;;;25.50;75.20;;;;;;4975292;28;20513;-79
2023/06/13 09:18:40;;;;;;;8.20;3.45;;;25.50;74.60;;;;;;4990001;28;20534;-79
2023/06/13 09:21:06;;;;;;;9.07;3.70;;;25.30;74.30;;;;;;4990402;28;20433;-80
2023/06/13 09:23:32;;;;;;;9.30;4.05;;;25.10;73.80;;;;;;4979221;28;20414;-80
2023/06/13 09:26:00;;;;;;;6.15;3.55;;;25.40;76.40;;;;;;4974801;28;20744;-80
2023/06/13 09:28:30;;;;;;;5.45;3.53;;;25.10;73.70;;;;;;4985915;28;20770;-79
2023/06/13 09:30:59;;;;;;;6.65;3.70;;;25.70;74.50;;;;;;4974718;28;20433;-79
2023/06/13 09:33:25;;;;;;;6.35;3.42;;;25.90;73.10;;;;;;4992946;28;20443;-78
2023/06/13 09:35:51;;;;;;;9.33;3.70;;;25.70;73.30;;;;;;4992799;28;20434;-78
2023/06/13 09:38:25;;;;;;;7.80;4.10;;;25.60;73.00;;;;;;4992354;28;20418;-79
2023/06/13 09:40:56;;;;;;;6.35;3.35;;;25.70;73.10;;;;;;5002737;28;20763;-78
2023/06/13 09:43:23;;;;;;;6.45;3.63;;;26.10;74.20;;;;;;4992875;28;20422;-78
2023/06/13 09:45:50;;;;;;;6.30;3.58;;;26.00;73.50;;;;;;4986905;28;20434;-77
2023/06/13 09:48:17;;;;;;;8.27;3.80;;;25.90;73.30;;;;;;4992396;28;20418;-77
2023/06/13 09:50:43;;;;;;;13.87;3.90;;;25.60;72.50;;;;;;4973700;28;20437;-78
2023/06/13 09:53:10;;;;;;;8.97;3.50;;;25.50;72.20;;;;;;4987511;28;20438;-75
2023/06/13 09:55:36;;;;;;;5.50;3.47;;;25.60;73.60;;;;;;4989972;28;20430;-76
2023/06/13 09:58:03;;;;;;;6.15;3.40;;;26.30;74.20;;;;;;4984820;28;20960;-76
2023/06/13 10:00:29;;;;;;;5.38;3.42;;;26.50;73.30;;;;;;4985968;28;20939;-76
2023/06/13 10:02:58;;;;;;;7.38;3.78;;;26.70;72.50;;;;;;4993160;28;20490;-76
2023/06/13 10:05:24;;;;;;;7.82;3.80;;;26.80;72.70;;;;;;4973500;28;20434;-76
2023/06/13 10:07:53;;;;;;;4.80;3.30;;;26.70;72.70;;;;;;4972193;28;20426;-77
2023/06/13 10:10:19;;;;;;;5.95;3.58;;;26.40;70.90;;;;;;4989035;28;20485;-76
2023/06/13 10:12:49;;;;;;;8.80;3.80;;;26.80;72.60;;;;;;4986874;28;20532;-77
2023/06/13 10:15:21;;;;;;;5.50;3.50;;;25.60;72.60;;;;;;4990431;28;20438;-75
2023/06/13 10:17:47;;;;;;;7.63;3.03;;;26.40;73.30;;;;;;4995466;28;20434;-76
2023/06/13 10:20:17;;;;;;;7.05;3.45;;;26.70;72.20;;;;;;4999191;28;20490;-76
2023/06/13 10:22:44;;;;;;;5.22;3.28;;;26.60;72.40;;;;;;4990818;28;20430;-77
2023/06/13 10:25:13;;;;;;;7.15;3.50;;;26.50;71.90;;;;;;5006515;28;20515;-78
2023/06/13 10:27:45;;;;;;;5.05;3.10;;;26.60;71.90;;;;;;4961250;28;20457;-77
2023/06/13 10:30:46;;;;;;;4.68;3.30;;;26.80;72.10;;;;;;4996856;28;20430;-78
2023/06/13 10:33:57;;;;;;;6.25;3.70;;;26.00;70.00;;;;;;4991104;28;20425;-76
2023/06/13 10:36:48;;;;;;;5.95;3.30;;;26.10;71.90;;;;;;4971309;28;20428;-77
2023/06/13 10:39:35;;;;;;;7.78;3.20;;;26.80;71.70;;;;;;4994007;28;20418;-77
2023/06/13 10:42:19;;;;;;;4.87;3.20;;;27.10;71.50;;;;;;4972986;28;20521;-78
2023/06/13 10:44:58;;;;;;;5.50;3.30;;;26.90;72.00;;;;;;4995573;28;20443;-77
2023/06/13 10:47:27;;;;;;;5.53;3.20;;;27.30;70.50;;;;;;4980411;28;20958;-77
2023/06/13 10:49:53;;;;;;;8.90;3.40;;;27.50;71.90;;;;;;5004883;28;20502;-77
2023/06/13 10:52:20;;;;;;;5.35;3.33;;;26.80;70.80;;;;;;4996208;28;20793;-77
2023/06/13 10:54:54;;;;;;;5.97;3.10;;;27.00;70.50;;;;;;4989765;28;20938;-77
2023/06/13 10:57:20;;;;;;;4.90;3.40;;;26.70;70.90;;;;;;4993453;28;20983;-77
2023/06/13 10:59:48;;;;;;;6.80;3.40;;;26.90;70.70;;;;;;4994823;28;20414;-78
2023/06/13 11:02:16;;;;;;;5.93;3.08;;;27.60;72.00;;;;;;4973919;28;20435;-77
2023/06/13 11:04:49;;;;;;;5.47;3.35;;;27.40;70.30;;;;;;4978165;28;20413;-76
2023/06/13 11:07:21;;;;;;;6.40;3.30;;;27.20;69.90;;;;;;4990077;28;20444;-77
2023/06/13 11:10:08;;;;;;;7.05;3.40;;;27.80;71.80;;;;;;4991043;28;20449;-76
2023/06/13 11:12:34;;;;;;;5.45;3.28;;;27.70;71.70;;;;;;4995219;28;20398;-76
2023/06/13 11:15:00;;;;;;;6.43;3.30;;;27.70;70.30;;;;;;4960844;28;20429;-76
2023/06/13 11:17:27;;;;;;;4.95;3.10;;;27.90;71.10;;;;;;4991129;28;20449;-77
2023/06/13 11:19:56;;;;;;;7.20;3.55;;;28.00;71.40;;;;;;4993150;28;20435;-77
2023/06/13 11:22:22;;;;;;;6.53;3.50;;;27.00;70.80;;;;;;4991317;28;20434;-76
2023/06/13 11:24:49;;;;;;;6.07;3.10;;;27.10;72.60;;;;;;4990559;28;20925;-76
2023/06/13 11:27:16;;;;;;;6.22;3.50;;;27.60;72.20;;;;;;4991444;28;20762;-76
2023/06/13 11:29:45;;;;;;;5.33;3.30;;;27.70;71.10;;;;;;5005240;28;20423;-77
2023/06/13 11:32:12;;;;;;;5.43;3.20;;;26.90;71.60;;;;;;5006007;28;20841;-77
2023/06/13 11:34:50;;;;;;;7.10;3.55;;;26.70;72.50;;;;;;4972618;28;20434;-77
2023/06/13 11:37:31;;;;;;;7.07;3.13;;;27.00;73.00;;;;;;4990927;28;20425;-77
2023/06/13 11:39:57;;;;;;;6.70;3.25;;;27.40;73.40;;;;;;4993129;28;20403;-77
2023/06/13 11:42:23;;;;;;;6.88;3.13;;;27.40;72.60;;;;;;4991713;28;20424;-76
2023/06/13 11:44:50;;;;;;;6.68;3.13;;;27.50;72.30;;;;;;4992201;28;20430;-77
2023/06/13 11:47:16;;;;;;;4.93;3.30;;;27.50;72.20;;;;;;4994104;28;20770;-76
2023/06/13 11:49:52;;;;;;;7.03;3.50;;;27.70;71.20;;;;;;4992195;28;20441;-77
2023/06/13 11:52:18;;;;;;;8.00;3.03;;;27.50;72.50;;;;;;4985169;28;20423;-77
2023/06/13 11:54:47;;;;;;;6.78;3.30;;;27.90;73.30;;;;;;4993311;28;21035;-77
2023/06/13 11:57:16;;;;;;;5.72;3.20;;;28.40;72.70;;;;;;4990230;28;20427;-77
2023/06/13 11:59:43;;;;;;;4.78;3.00;;;28.20;72.20;;;;;;4990654;28;20426;-77
2023/06/13 12:02:10;;;;;;;6.78;3.50;;;28.10;72.00;;;;;;4967178;28;20519;-77
2023/06/13 12:04:36;;;;;;;5.03;3.08;;;27.90;73.00;;;;;;4993287;28;20393;-74
2023/06/13 12:07:06;;;;;;;6.28;3.50;;;27.40;72.80;;;;;;4991812;28;20517;-74
2023/06/13 12:09:32;;;;;;;7.78;3.10;;;28.20;74.70;;;;;;4979060;28;20446;-74
2023/06/13 12:11:58;;;;;;;5.53;2.90;;;28.30;74.90;;;;;;4965288;28;20438;-75
2023/06/13 12:14:24;;;;;;;7.80;3.23;;;28.70;73.90;;;;;;4980969;28;20902;-75
2023/06/13 12:16:51;;;;;;;4.57;3.08;;;28.60;74.00;;;;;;4971036;28;20819;-75
2023/06/13 12:19:22;;;;;;;6.88;3.08;;;28.10;72.70;;;;;;4978489;28;20458;-75
2023/06/13 12:21:56;;;;;;;6.05;3.10;;;28.60;74.40;;;;;;4977951;28;20851;-74
2023/06/13 12:24:25;;;;;;;6.13;3.00;;;29.00;74.50;;;;;;4985907;28;21171;-75
2023/06/13 12:26:52;;;;;;;7.47;2.92;;;28.50;73.80;;;;;;4970904;28;20436;-74
2023/06/13 12:29:23;;;;;;;8.10;3.00;;;28.60;72.10;;;;;;4973270;28;20839;-75
2023/06/13 12:31:56;;;;;;;11.00;3.10;;;28.90;73.00;;;;;;4981963;28;20449;-74
2023/06/13 12:34:31;;;;;;;7.10;3.00;;;27.50;72.40;;;;;;4973858;28;20426;-74
2023/06/13 12:37:04;;;;;;;6.60;3.35;;;27.90;73.60;;;;;;4975313;28;20422;-74
2023/06/13 12:39:30;;;;;;;5.55;3.15;;;27.90;73.30;;;;;;4988550;28;20453;-74
2023/06/13 12:42:00;;;;;;;8.02;3.20;;;27.30;72.10;;;;;;4969197;28;20430;-74
2023/06/13 12:44:30;;;;;;;6.55;2.88;;;28.70;71.60;;;;;;4990067;28;20751;-74
2023/06/13 12:46:59;;;;;;;5.83;3.00;;;28.30;72.30;;;;;;4994724;28;20413;-74
2023/06/13 12:49:25;;;;;;;7.10;2.90;;;28.80;71.80;;;;;;4985605;28;20518;-74
2023/06/13 12:51:52;;;;;;;5.43;2.90;;;28.70;72.90;;;;;;4994669;28;20809;-74
2023/06/13 12:54:25;;;;;;;4.68;3.00;;;28.10;70.30;;;;;;4974890;28;20426;-74
2023/06/13 12:57:01;;;;;;;7.07;3.00;;;28.20;70.40;;;;;;4985300;28;20443;-74
2023/06/13 12:59:38;;;;;;;7.60;3.00;;;28.20;70.80;;;;;;4983278;28;20416;-74
2023/06/13 13:02:10;;;;;;;5.82;2.90;;;27.60;71.10;;;;;;4984242;28;20441;-74
2023/06/13 13:04:37;;;;;;;6.05;3.00;;;27.40;69.30;;;;;;4978521;28;20422;-74
2023/06/13 13:07:05;;;;;;;6.28;2.83;;;28.40;70.90;;;;;;4988418;28;20802;-74
2023/06/13 13:09:32;;;;;;;6.93;3.00;;;28.50;71.40;;;;;;4971932;28;20505;-74
2023/06/13 13:11:58;;;;;;;8.68;3.28;;;28.70;71.20;;;;;;4974573;28;20469;-75
2023/06/13 13:14:28;;;;;;;4.78;2.97;;;28.50;70.10;;;;;;4991275;28;20505;-75
2023/06/13 13:16:54;;;;;;;5.03;2.80;;;29.50;69.70;;;;;;4992028;28;20756;-74
2023/06/13 13:19:21;;;;;;;4.95;2.90;;;29.40;69.50;;;;;;4987174;28;20500;-74
2023/06/13 13:21:47;;;;;;;4.80;2.83;;;29.90;68.50;;;;;;4982618;28;20778;-74
2023/06/13 13:24:14;;;;;;;4.50;2.50;;;29.80;68.60;;;;;;4989913;28;20436;-73